createdAt,value
2023-03-29T00:00:57.784Z,-0.13
2023-03-29T00:03:24.526Z,-0.22
2023-03-29T00:05:51.214Z,-0.36
2023-03-29T00:08:17.830Z,-0.10
2023-03-29T00:10:48.995Z,-0.08
2023-03-29T00:13:15.794Z,0.06
2023-03-29T00:15:42.543Z,-0.05
2023-03-29T00:18:09.325Z,-0.30
2023-03-29T00:20:35.980Z,-0.47
2023-03-29T00:23:02.641Z,-0.46
2023-03-29T00:25:29.256Z,-0.25
2023-03-29T00:27:55.863Z,-0.47
2023-03-29T00:30:22.536Z,-0.50
2023-03-29T00:32:49.175Z,-0.47
2023-03-29T00:35:16.078Z,-0.51
2023-03-29T00:37:42.923Z,-0.21
2023-03-29T00:40:11.142Z,-0.42
2023-03-29T00:42:38.007Z,-0.63
2023-03-29T00:45:06.110Z,-0.78
2023-03-29T00:47:45.655Z,-1.00
2023-03-29T00:50:28.244Z,-1.02
2023-03-29T00:53:09.892Z,-1.23
2023-03-29T00:55:42.912Z,-1.32
2023-03-29T00:58:13.833Z,-1.07
2023-03-29T01:00:47.882Z,-1.03
2023-03-29T01:03:17.636Z,-0.94
2023-03-29T01:05:47.676Z,-1.02
2023-03-29T01:08:22.965Z,-1.05
2023-03-29T01:10:57.297Z,-1.01
2023-03-29T01:13:34.039Z,-1.00
2023-03-29T01:16:02.724Z,-0.95
2023-03-29T01:18:29.542Z,-0.79
2023-03-29T01:21:03.711Z,-0.85
2023-03-29T01:23:36.581Z,-0.68
2023-03-29T01:26:08.957Z,-0.64
2023-03-29T01:28:41.107Z,-1.25
2023-03-29T01:31:22.002Z,-1.00
2023-03-29T01:33:59.168Z,-0.62
2023-03-29T01:36:38.909Z,-0.61
2023-03-29T01:39:06.996Z,-0.38
2023-03-29T01:41:53.939Z,-0.34
2023-03-29T01:44:47.637Z,-0.69
2023-03-29T01:47:27.834Z,-0.71
2023-03-29T01:50:06.530Z,-0.90
2023-03-29T01:53:00.817Z,-1.26
2023-03-29T01:55:36.226Z,-0.96
2023-03-29T01:58:06.596Z,-0.84
2023-03-29T02:00:35.040Z,-0.42
2023-03-29T02:03:08.634Z,-0.62
2023-03-29T02:05:38.563Z,-0.55
2023-03-29T02:08:08.704Z,-0.49
2023-03-29T02:10:36.911Z,-0.62
2023-03-29T02:13:04.755Z,-0.54
2023-03-29T02:15:31.445Z,-0.65
2023-03-29T02:17:58.164Z,-0.68
2023-03-29T02:20:29.923Z,-0.80
2023-03-29T02:23:17.219Z,-0.87
2023-03-29T02:25:46.102Z,-1.08
2023-03-29T02:28:13.572Z,-0.91
2023-03-29T02:31:18.115Z,-0.94
2023-03-29T02:33:47.484Z,-1.09
2023-03-29T02:36:37.758Z,-1.15
2023-03-29T02:39:05.644Z,-1.18
2023-03-29T02:41:33.950Z,-1.42
2023-03-29T02:44:02.905Z,-1.63
2023-03-29T02:46:30.150Z,-1.75
2023-03-29T02:48:57.855Z,-1.51
2023-03-29T02:51:30.728Z,-1.53
2023-03-29T02:54:05.652Z,-1.46
2023-03-29T02:56:45.603Z,-1.26
2023-03-29T02:59:12.989Z,-1.36
2023-03-29T03:01:41.416Z,-1.11
2023-03-29T03:04:09.467Z,-1.18
2023-03-29T03:06:37.652Z,-1.17
2023-03-29T03:09:05.342Z,-1.04
2023-03-29T03:11:33.412Z,-1.06
2023-03-29T03:14:00.410Z,-1.21
2023-03-29T03:16:27.330Z,-1.04
2023-03-29T03:18:54.012Z,-1.34
2023-03-29T03:21:20.888Z,-1.20
2023-03-29T03:23:48.315Z,-1.55
2023-03-29T03:26:16.299Z,-1.51
2023-03-29T03:28:42.937Z,-1.34
2023-03-29T03:31:09.615Z,-1.21
2023-03-29T03:33:36.366Z,-1.22
2023-03-29T03:36:03.349Z,-1.43
2023-03-29T03:38:30.134Z,-1.30
2023-03-29T03:40:57.712Z,-1.41
2023-03-29T03:43:25.256Z,-1.23
2023-03-29T03:45:52.173Z,-1.38
2023-03-29T03:48:18.897Z,-1.27
2023-03-29T03:50:57.109Z,-1.34
2023-03-29T03:53:25.075Z,-1.96
2023-03-29T03:55:53.606Z,-1.95
2023-03-29T03:58:20.269Z,-1.63
2023-03-29T04:00:51.106Z,-1.48
2023-03-29T04:03:18.608Z,-1.29
2023-03-29T04:05:46.786Z,-1.35
2023-03-29T04:08:14.746Z,-1.43
2023-03-29T04:10:41.673Z,-1.36
2023-03-29T04:13:08.343Z,-1.37
2023-03-29T04:15:35.434Z,-1.27
2023-03-29T04:18:02.080Z,-1.40
2023-03-29T04:20:28.969Z,-1.40
2023-03-29T04:22:55.604Z,-1.67
2023-03-29T04:25:22.255Z,-1.54
2023-03-29T04:27:50.927Z,-1.65
2023-03-29T04:30:17.573Z,-1.78
2023-03-29T04:32:44.231Z,-2.07
2023-03-29T04:35:10.897Z,-2.56
2023-03-29T04:37:37.505Z,-2.23
2023-03-29T04:40:04.527Z,-1.98
2023-03-29T04:42:31.137Z,-1.99
2023-03-29T04:44:57.799Z,-1.88
2023-03-29T04:47:24.448Z,-1.83
2023-03-29T04:49:51.065Z,-1.65
2023-03-29T04:52:17.817Z,-1.54
2023-03-29T04:54:44.440Z,-1.40
2023-03-29T04:57:11.123Z,-1.34
2023-03-29T04:59:37.843Z,-1.41
2023-03-29T05:02:04.553Z,-1.51
2023-03-29T05:04:31.888Z,-1.40
2023-03-29T05:06:58.686Z,-0.81
2023-03-29T05:09:25.442Z,-1.47
2023-03-29T05:11:52.385Z,-0.94
2023-03-29T05:14:19.132Z,-1.30
2023-03-29T05:16:46.007Z,-2.17
2023-03-29T05:19:12.664Z,-2.16
2023-03-29T05:57:11.140Z,-0.64
2023-03-29T05:59:37.734Z,-1.06
2023-03-29T06:02:05.097Z,-1.13
2023-03-29T06:04:32.335Z,-0.74
2023-03-29T06:06:59.297Z,-1.07
2023-03-29T06:09:25.970Z,-1.00
2023-03-29T06:11:52.586Z,-0.83
2023-03-29T06:14:19.333Z,-0.65
2023-03-29T06:16:46.030Z,-0.82
2023-03-29T06:19:12.706Z,-0.29
2023-03-29T06:21:39.409Z,-0.27
2023-03-29T06:24:06.115Z,-0.65
2023-03-29T06:26:32.863Z,-0.68
2023-03-29T06:28:59.539Z,-0.55
2023-03-29T06:31:26.165Z,-0.45
2023-03-29T06:33:52.820Z,-0.96
2023-03-29T06:36:19.638Z,-0.45
2023-03-29T06:38:46.302Z,-0.76
2023-03-29T06:41:12.930Z,-0.61
2023-03-29T06:43:46.835Z,-0.11
2023-03-29T06:46:13.512Z,0.23
2023-03-29T06:48:40.751Z,0.11
2023-03-29T06:51:07.713Z,-0.30
2023-03-29T06:53:34.992Z,0.10
2023-03-29T06:56:01.633Z,0.19
2023-03-29T06:58:28.336Z,-0.10
2023-03-29T07:01:00.342Z,-0.05
2023-03-29T07:03:27.054Z,-0.05
2023-03-29T07:05:53.904Z,-0.01
2023-03-29T07:08:20.611Z,0.29
2023-03-29T07:10:48.319Z,0.14
2023-03-29T07:13:15.157Z,0.66
2023-03-29T07:15:43.467Z,0.77
2023-03-29T07:18:11.100Z,0.83
2023-03-29T07:20:37.805Z,1.06
2023-03-29T07:23:06.067Z,0.90
2023-03-29T07:25:32.714Z,0.56
2023-03-29T07:27:59.857Z,1.05
2023-03-29T07:30:30.960Z,0.98
2023-03-29T07:32:58.561Z,0.92
2023-03-29T07:35:26.490Z,1.01
2023-03-29T07:37:53.095Z,0.93
2023-03-29T07:40:19.986Z,1.02
2023-03-29T07:42:46.952Z,1.31
2023-03-29T07:45:15.685Z,1.10
2023-03-29T07:47:46.347Z,0.92
2023-03-29T07:50:13.571Z,1.51
2023-03-29T07:52:40.429Z,0.75
2023-03-29T07:55:08.814Z,1.18
2023-03-29T07:57:36.234Z,1.27
2023-03-29T08:00:04.402Z,1.38
2023-03-29T08:02:31.059Z,1.26
2023-03-29T08:04:57.776Z,1.72
2023-03-29T08:07:24.462Z,1.43
2023-03-29T08:09:51.104Z,1.51
2023-03-29T08:12:17.967Z,1.98
2023-03-29T08:14:44.583Z,2.00
2023-03-29T08:17:11.194Z,1.76
2023-03-29T08:19:37.833Z,1.87
2023-03-29T08:22:04.658Z,2.09
2023-03-29T08:24:31.264Z,2.20
2023-03-29T08:26:58.211Z,2.34
2023-03-29T08:29:24.987Z,2.28
2023-03-29T08:31:51.651Z,2.05
2023-03-29T08:34:18.373Z,2.12
2023-03-29T08:36:45.007Z,2.50
2023-03-29T08:39:11.687Z,2.67
2023-03-29T08:42:00.872Z,2.95
2023-03-29T08:44:39.818Z,2.92
2023-03-29T08:47:12.732Z,2.87
2023-03-29T08:49:43.445Z,3.00
2023-03-29T08:52:34.967Z,2.64
2023-03-29T08:55:08.599Z,2.57
2023-03-29T08:57:46.273Z,2.72
2023-03-29T09:00:21.490Z,3.28
2023-03-29T09:02:49.816Z,3.37
2023-03-29T09:05:40.382Z,3.35
2023-03-29T09:08:16.435Z,3.43
2023-03-29T09:10:48.389Z,3.41
2023-03-29T09:13:34.426Z,3.59
2023-03-29T09:16:01.065Z,3.83
2023-03-29T09:18:38.407Z,3.67
2023-03-29T09:21:05.150Z,3.96
2023-03-29T09:24:00.989Z,4.05
2023-03-29T09:26:37.045Z,4.09
2023-03-29T09:29:16.697Z,3.82
2023-03-29T09:31:44.778Z,4.17
2023-03-29T09:34:21.445Z,4.78
2023-03-29T09:37:00.442Z,4.91
2023-03-29T09:39:28.316Z,4.83
2023-03-29T09:42:05.758Z,5.09
2023-03-29T09:44:39.004Z,4.59
2023-03-29T09:47:19.623Z,4.72
2023-03-29T09:49:55.137Z,5.02
2023-03-29T09:52:21.941Z,4.96
2023-03-29T09:54:49.506Z,5.77
2023-03-29T09:57:18.852Z,5.56
2023-03-29T09:59:47.302Z,4.97
2023-03-29T10:02:14.652Z,5.20
2023-03-29T10:04:42.340Z,5.34
2023-03-29T10:07:19.669Z,5.54
2023-03-29T10:09:52.017Z,5.74
2023-03-29T10:12:19.798Z,5.46
2023-03-29T10:14:51.524Z,5.48
2023-03-29T10:17:22.708Z,5.39
2023-03-29T10:19:58.166Z,5.66
2023-03-29T10:22:27.193Z,5.89
2023-03-29T10:24:55.259Z,5.98
2023-03-29T10:27:28.410Z,5.73
2023-03-29T10:29:58.618Z,5.68
2023-03-29T10:32:35.163Z,5.71
2023-03-29T10:35:30.549Z,6.04
2023-03-29T10:37:58.468Z,5.94
2023-03-29T10:40:34.722Z,5.97
2023-03-29T10:43:12.840Z,6.28
2023-03-29T10:45:40.511Z,6.31
2023-03-29T10:48:13.145Z,6.48
2023-03-29T10:50:41.353Z,6.49
2023-03-29T10:53:28.471Z,5.65
2023-03-29T10:56:22.994Z,6.01
2023-03-29T10:58:58.655Z,6.77
2023-03-29T11:01:44.685Z,7.09
2023-03-29T11:04:42.739Z,7.01
2023-03-29T11:07:20.899Z,7.06
2023-03-29T11:10:10.108Z,6.98
2023-03-29T11:12:42.733Z,7.09
2023-03-29T11:15:34.336Z,7.00
2023-03-29T11:18:25.813Z,6.76
2023-03-29T11:21:18.495Z,7.06
2023-03-29T11:24:33.396Z,7.29
2023-03-29T11:27:52.326Z,7.15
2023-03-29T11:30:41.898Z,7.56
2023-03-29T11:33:26.772Z,7.73
2023-03-29T11:36:14.829Z,7.38
2023-03-29T11:39:20.413Z,7.44
2023-03-29T11:41:53.198Z,7.24
2023-03-29T11:44:33.348Z,7.24
2023-03-29T11:47:14.724Z,7.41
2023-03-29T11:49:47.102Z,7.71
2023-03-29T11:52:30.382Z,7.40
2023-03-29T11:55:04.411Z,7.26
2023-03-29T11:57:37.304Z,7.52
2023-03-29T12:00:10.943Z,7.69
2023-03-29T12:03:02.143Z,8.02
2023-03-29T12:05:39.833Z,8.09
2023-03-29T12:08:16.686Z,7.58
2023-03-29T12:10:50.052Z,7.26
2023-03-29T12:13:28.516Z,7.22
2023-03-29T12:16:07.873Z,7.00
2023-03-29T12:18:42.522Z,7.34
2023-03-29T12:21:14.648Z,7.56
2023-03-29T12:23:43.534Z,7.39
2023-03-29T12:26:24.919Z,7.44
2023-03-29T12:29:28.548Z,7.39
2023-03-29T12:32:22.347Z,7.53
2023-03-29T12:35:07.714Z,7.60
2023-03-29T12:37:53.019Z,7.31
2023-03-29T12:40:21.564Z,7.50
2023-03-29T12:42:52.715Z,7.87
2023-03-29T12:45:43.794Z,8.11
2023-03-29T12:48:26.280Z,7.78
2023-03-29T12:51:04.163Z,7.93
2023-03-29T12:53:38.094Z,8.15
2023-03-29T12:56:04.910Z,8.18
2023-03-29T12:58:40.628Z,7.40
2023-03-29T13:01:31.531Z,8.26
2023-03-29T13:04:01.301Z,8.25
2023-03-29T13:06:31.913Z,8.09
2023-03-29T13:09:04.656Z,7.87
2023-03-29T13:11:38.842Z,7.69
2023-03-29T13:14:15.855Z,7.79
2023-03-29T13:16:43.441Z,7.31
2023-03-29T13:19:30.260Z,7.08
2023-03-29T13:22:15.144Z,7.56
2023-03-29T13:25:08.282Z,7.83
2023-03-29T13:27:56.824Z,7.84
2023-03-29T13:30:32.415Z,7.69
2023-03-29T13:33:34.157Z,8.08
2023-03-29T13:36:08.094Z,7.74
2023-03-29T13:38:46.233Z,8.07
2023-03-29T13:41:40.453Z,7.85
2023-03-29T13:44:22.190Z,7.38
2023-03-29T13:47:00.795Z,7.39
2023-03-29T13:49:31.131Z,7.67
2023-03-29T13:52:19.172Z,7.85
2023-03-29T13:54:53.019Z,7.81
2023-03-29T13:57:23.717Z,8.22
2023-03-29T14:00:06.535Z,8.45
2023-03-29T14:02:48.111Z,8.22
2023-03-29T14:05:39.055Z,8.33
2023-03-29T14:08:13.543Z,8.06
2023-03-29T14:10:42.577Z,7.75
2023-03-29T14:13:18.679Z,7.76
2023-03-29T14:15:50.183Z,8.28
2023-03-29T14:18:21.298Z,8.30
2023-03-29T14:20:50.470Z,8.51
2023-03-29T14:23:23.892Z,8.22
2023-03-29T14:25:50.773Z,7.85
2023-03-29T14:28:24.266Z,8.03
2023-03-29T14:30:51.429Z,8.55
2023-03-29T14:33:29.148Z,8.76
2023-03-29T14:35:58.764Z,8.46
2023-03-29T14:38:25.989Z,7.77
2023-03-29T14:40:52.996Z,8.24
2023-03-29T14:43:21.719Z,7.58
2023-03-29T14:45:49.526Z,7.63
2023-03-29T14:48:16.873Z,7.95
2023-03-29T14:50:45.941Z,7.75
2023-03-29T14:53:19.533Z,8.05
2023-03-29T14:55:49.999Z,7.61
2023-03-29T14:58:21.331Z,7.66
2023-03-29T15:00:50.801Z,7.78
2023-03-29T15:03:18.277Z,7.98
2023-03-29T15:05:52.142Z,7.74
2023-03-29T15:08:29.439Z,7.44
2023-03-29T15:10:56.214Z,7.58
2023-03-29T15:13:24.922Z,7.22
2023-03-29T15:16:00.708Z,7.47
2023-03-29T15:18:32.809Z,7.62
2023-03-29T15:21:00.489Z,7.05
2023-03-29T15:23:53.253Z,7.53
2023-03-29T15:26:25.705Z,7.78
2023-03-29T15:28:54.653Z,7.66
2023-03-29T15:31:26.485Z,7.29
2023-03-29T15:34:13.969Z,7.75
2023-03-29T15:36:43.936Z,7.51
2023-03-29T15:39:16.473Z,7.61
2023-03-29T15:41:45.284Z,7.80
2023-03-29T15:44:15.770Z,7.63
2023-03-29T15:46:42.448Z,7.95
2023-03-29T15:49:13.776Z,8.33
2023-03-29T15:51:40.881Z,8.28
2023-03-29T15:54:07.992Z,8.14
2023-03-29T15:56:41.934Z,8.28
2023-03-29T15:59:11.540Z,8.35
2023-03-29T16:01:38.459Z,8.23
2023-03-29T16:04:11.732Z,8.21
2023-03-29T16:06:38.885Z,8.19
2023-03-29T16:09:05.836Z,8.13
2023-03-29T16:11:33.230Z,7.95
2023-03-29T16:13:59.892Z,8.32
2023-03-29T16:16:26.958Z,8.65
2023-03-29T16:18:53.838Z,8.49
2023-03-29T16:21:22.281Z,8.92
2023-03-29T16:23:48.987Z,8.39
2023-03-29T16:26:17.019Z,8.03
2023-03-29T16:28:44.501Z,8.30
2023-03-29T16:31:13.064Z,8.62
2023-03-29T16:33:41.237Z,8.57
2023-03-29T16:36:08.538Z,8.38
2023-03-29T16:38:35.401Z,8.82
2023-03-29T16:41:02.294Z,8.75
2023-03-29T16:43:28.969Z,8.47
2023-03-29T16:45:55.654Z,8.16
2023-03-29T16:48:22.369Z,8.58
2023-03-29T16:50:49.322Z,8.54
2023-03-29T16:53:16.791Z,8.47
2023-03-29T16:55:45.588Z,7.70
2023-03-29T16:58:12.369Z,8.07
2023-03-29T17:00:39.026Z,8.15
2023-03-29T17:03:05.704Z,7.94
2023-03-29T17:05:32.430Z,7.90
2023-03-29T17:07:59.203Z,8.18
2023-03-29T17:10:25.969Z,8.52
2023-03-29T17:12:52.719Z,8.30
2023-03-29T17:15:19.436Z,8.19
2023-03-29T17:17:46.137Z,8.11
2023-03-29T17:20:12.843Z,8.54
2023-03-29T17:22:40.261Z,8.57
2023-03-29T17:25:08.228Z,8.54
2023-03-29T17:27:35.658Z,8.24
2023-03-29T17:30:02.435Z,8.12
2023-03-29T17:32:29.259Z,7.87
2023-03-29T17:34:56.107Z,7.20
2023-03-29T17:37:22.747Z,6.79
2023-03-29T17:39:49.453Z,7.03
2023-03-29T17:42:17.558Z,7.18
2023-03-29T17:44:44.183Z,6.94
2023-03-29T17:47:10.845Z,6.94
2023-03-29T17:49:37.537Z,6.98
2023-03-29T17:52:04.403Z,7.11
2023-03-29T17:54:31.114Z,6.94
2023-03-29T17:56:57.828Z,6.40
2023-03-29T17:59:24.659Z,6.61
2023-03-29T18:01:51.444Z,6.54
2023-03-29T18:04:18.166Z,7.06
2023-03-29T18:06:44.946Z,6.80
2023-03-29T18:09:13.173Z,7.37
2023-03-29T18:11:39.944Z,7.48
2023-03-29T18:14:06.581Z,6.39
2023-03-29T18:16:33.359Z,6.99
2023-03-29T18:19:00.199Z,6.83
2023-03-29T18:21:27.150Z,7.12
2023-03-29T18:23:56.203Z,6.48
2023-03-29T18:26:23.601Z,7.24
2023-03-29T18:28:50.683Z,7.51
2023-03-29T18:31:17.614Z,6.87
2023-03-29T18:33:46.513Z,7.26
2023-03-29T18:36:14.153Z,7.45
2023-03-29T18:38:43.548Z,7.53
2023-03-29T18:41:12.358Z,7.58
2023-03-29T18:43:40.633Z,6.83
2023-03-29T18:46:08.044Z,6.42
2023-03-29T18:48:35.470Z,6.16
2023-03-29T18:51:03.813Z,6.63
2023-03-29T18:53:31.735Z,6.74
2023-03-29T18:55:58.454Z,7.17
2023-03-29T18:58:25.240Z,6.63
2023-03-29T19:00:52.050Z,6.56
2023-03-29T19:03:18.732Z,6.56
2023-03-29T19:05:45.769Z,6.33
2023-03-29T19:08:12.411Z,6.19
2023-03-29T19:10:42.814Z,6.29
2023-03-29T19:13:09.481Z,5.94
2023-03-29T19:15:36.269Z,6.56
2023-03-29T19:18:02.933Z,6.51
2023-03-29T19:20:29.558Z,6.40
2023-03-29T19:22:56.137Z,5.83
2023-03-29T19:25:22.857Z,5.71
2023-03-29T19:27:49.483Z,5.95
2023-03-29T19:30:16.347Z,6.21
2023-03-29T19:32:43.164Z,5.93
2023-03-29T19:35:10.032Z,6.18
2023-03-29T19:37:36.685Z,6.50
2023-03-29T19:40:03.516Z,7.27
2023-03-29T19:42:30.420Z,7.23
2023-03-29T19:44:57.057Z,6.33
2023-03-29T19:47:23.707Z,6.67
2023-03-29T19:49:50.578Z,6.92
2023-03-29T19:52:17.380Z,6.38
2023-03-29T19:54:44.082Z,6.76
2023-03-29T19:57:10.837Z,6.45
2023-03-29T19:59:37.508Z,7.03
2023-03-29T20:02:04.237Z,6.41
2023-03-29T20:04:31.054Z,6.16
2023-03-29T20:06:57.737Z,6.68
2023-03-29T20:09:24.393Z,5.93
2023-03-29T20:11:51.309Z,5.65
2023-03-29T20:14:18.018Z,5.79
2023-03-29T20:16:44.747Z,5.72
2023-03-29T20:19:11.708Z,5.82
2023-03-29T20:21:38.574Z,6.13
2023-03-29T20:24:06.102Z,6.18
2023-03-29T20:26:32.798Z,6.16
2023-03-29T20:28:59.484Z,6.25
2023-03-29T20:31:26.163Z,6.41
2023-03-29T20:33:53.025Z,6.38
2023-03-29T20:36:20.326Z,6.35
2023-03-29T20:38:46.935Z,6.39
2023-03-29T20:41:13.686Z,6.30
2023-03-29T20:43:40.473Z,6.36
2023-03-29T20:46:09.445Z,6.26
2023-03-29T20:48:36.374Z,6.56
2023-03-29T20:51:03.300Z,6.90
2023-03-29T20:53:30.183Z,7.08
2023-03-29T20:55:56.975Z,7.00
2023-03-29T20:58:23.820Z,6.98
2023-03-29T21:00:50.714Z,6.80
2023-03-29T21:03:17.420Z,6.89
2023-03-29T21:05:44.095Z,6.82
2023-03-29T21:08:10.943Z,6.80
2023-03-29T21:10:37.584Z,6.93
2023-03-29T21:13:04.243Z,6.82
2023-03-29T21:15:31.221Z,6.74
2023-03-29T21:17:58.208Z,6.80
2023-03-29T21:20:25.633Z,6.66
2023-03-29T21:22:52.412Z,6.68
2023-03-29T21:25:19.706Z,6.68
2023-03-29T21:27:46.473Z,6.56
2023-03-29T21:30:13.930Z,6.50
2023-03-29T21:32:40.686Z,6.46
2023-03-29T21:35:08.077Z,6.36
2023-03-29T21:37:34.772Z,6.34
2023-03-29T21:40:01.502Z,6.43
2023-03-29T21:42:28.152Z,6.28
2023-03-29T21:44:54.795Z,6.32
2023-03-29T21:47:21.513Z,6.36
2023-03-29T21:49:48.172Z,6.61
2023-03-29T21:52:15.005Z,6.31
2023-03-29T21:54:41.699Z,6.43
2023-03-29T21:57:08.770Z,6.35
2023-03-29T21:59:35.484Z,6.47
2023-03-29T22:02:02.366Z,6.36
2023-03-29T22:04:36.495Z,6.36
2023-03-29T22:07:05.556Z,6.26
2023-03-29T22:09:33.524Z,6.37
2023-03-29T22:12:00.379Z,6.48
2023-03-29T22:14:27.282Z,6.52
2023-03-29T22:16:54.025Z,6.49
2023-03-29T22:19:20.690Z,6.29
2023-03-29T22:21:50.353Z,6.42
2023-03-29T22:24:17.033Z,6.24
2023-03-29T22:26:43.624Z,6.39
2023-03-29T22:29:10.558Z,6.30
2023-03-29T22:31:37.204Z,6.31
2023-03-29T22:34:03.857Z,6.32
2023-03-29T22:36:31.292Z,6.49
2023-03-29T22:38:58.129Z,6.49
2023-03-29T22:41:26.258Z,6.37
2023-03-29T22:43:55.030Z,6.26
2023-03-29T22:46:22.052Z,6.32
2023-03-29T22:48:48.946Z,6.27
2023-03-29T22:51:15.640Z,6.18
2023-03-29T22:53:42.313Z,6.59
2023-03-29T22:56:09.609Z,6.54
2023-03-29T22:58:37.650Z,6.19
2023-03-29T23:01:05.676Z,6.14
2023-03-29T23:03:32.753Z,6.19
2023-03-29T23:06:00.368Z,6.14
2023-03-29T23:08:26.969Z,5.87
2023-03-29T23:10:53.639Z,5.99
2023-03-29T23:13:20.572Z,5.82
2023-03-29T23:15:48.976Z,5.89
2023-03-29T23:18:17.356Z,6.12
2023-03-29T23:20:45.238Z,5.94
2023-03-29T23:23:11.846Z,5.84
2023-03-29T23:25:38.585Z,5.81
2023-03-29T23:28:05.318Z,5.80
2023-03-29T23:30:34.364Z,5.66
2023-03-29T23:33:01.128Z,5.93
2023-03-29T23:35:28.042Z,5.68
2023-03-29T23:37:54.657Z,5.63
2023-03-29T23:40:21.653Z,5.64
2023-03-29T23:42:48.468Z,5.50
2023-03-29T23:45:17.439Z,5.51
2023-03-29T23:47:45.492Z,5.26
2023-03-29T23:50:13.751Z,5.21
2023-03-29T23:52:41.589Z,5.20
2023-03-29T23:55:13.546Z,5.30
2023-03-29T23:57:40.395Z,5.40
